createdAt,value
2023-04-28T00:02:30.132Z,9.70
2023-04-28T00:05:05.807Z,9.40
2023-04-28T00:07:37.421Z,9.40
2023-04-28T00:10:07.905Z,9.03
2023-04-28T00:12:39.753Z,9.03
2023-04-28T00:15:16.053Z,9.20
2023-04-28T00:17:47.577Z,8.87
2023-04-28T00:20:24.694Z,9.63
2023-04-28T00:23:01.537Z,9.50
2023-04-28T00:25:43.093Z,10.43
2023-04-28T00:28:32.845Z,11.20
2023-04-28T00:31:13.952Z,11.70
2023-04-28T00:33:49.046Z,9.73
2023-04-28T00:36:34.577Z,10.20
2023-04-28T00:39:05.053Z,10.33
2023-04-28T00:41:39.604Z,9.47
2023-04-28T00:44:25.519Z,9.60
2023-04-28T00:47:03.470Z,9.70
2023-04-28T00:49:42.739Z,10.03
2023-04-28T00:52:20.318Z,9.53
2023-04-28T00:54:57.470Z,8.50
2023-04-28T00:57:27.735Z,9.17
2023-04-28T01:00:03.710Z,9.07
2023-04-28T01:02:36.315Z,9.60
2023-04-28T01:05:13.593Z,9.27
2023-04-28T01:07:53.918Z,9.53
2023-04-28T01:10:36.539Z,9.10
2023-04-28T01:13:23.351Z,10.10
2023-04-28T01:16:00.356Z,9.87
2023-04-28T01:18:33.303Z,9.20
2023-04-28T01:21:02.161Z,9.80
2023-04-28T01:23:31.661Z,9.40
2023-04-28T01:26:06.732Z,9.40
2023-04-28T01:28:40.541Z,9.57
2023-04-28T01:31:14.577Z,9.20
2023-04-28T01:33:52.210Z,11.33
2023-04-28T01:36:25.740Z,11.10
2023-04-28T01:38:59.725Z,10.63
2023-04-28T01:41:36.676Z,10.20
2023-04-28T01:44:11.117Z,10.00
2023-04-28T01:46:45.021Z,9.43
2023-04-28T01:49:17.055Z,10.63
2023-04-28T01:51:56.646Z,10.20
2023-04-28T01:54:34.216Z,10.80
2023-04-28T01:57:12.207Z,10.87
2023-04-28T01:59:42.095Z,10.23
2023-04-28T02:02:16.458Z,10.27
2023-04-28T02:04:48.147Z,10.83
2023-04-28T02:07:24.136Z,10.13
2023-04-28T02:10:00.274Z,10.23
2023-04-28T02:12:43.375Z,11.50
2023-04-28T02:15:20.094Z,10.50
2023-04-28T02:17:54.485Z,10.40
2023-04-28T02:20:29.630Z,10.43
2023-04-28T02:23:04.482Z,11.10
2023-04-28T02:25:34.926Z,10.40
2023-04-28T02:28:27.525Z,9.93
2023-04-28T02:31:10.691Z,10.43
2023-04-28T02:33:48.589Z,11.33
2023-04-28T02:36:19.690Z,10.43
2023-04-28T02:38:59.104Z,10.17
2023-04-28T02:41:40.399Z,11.00
2023-04-28T02:44:22.192Z,10.37
2023-04-28T02:46:58.288Z,10.30
2023-04-28T02:49:37.921Z,10.63
2023-04-28T02:52:16.039Z,11.80
2023-04-28T02:54:49.677Z,11.70
2023-04-28T02:57:21.520Z,10.17
2023-04-28T02:59:55.662Z,9.73
2023-04-28T03:02:35.254Z,10.93
2023-04-28T03:05:15.547Z,10.27
2023-04-28T03:07:56.257Z,10.50
2023-04-28T03:10:28.300Z,10.70
2023-04-28T03:13:05.007Z,10.73
2023-04-28T03:15:39.221Z,10.13
2023-04-28T03:18:14.234Z,9.37
2023-04-28T03:20:47.458Z,11.50
2023-04-28T03:23:26.485Z,10.37
2023-04-28T03:25:59.830Z,9.50
2023-04-28T03:28:36.857Z,8.97
2023-04-28T03:31:15.366Z,8.20
2023-04-28T03:33:49.749Z,8.50
2023-04-28T03:36:35.817Z,8.43
2023-04-28T03:39:17.623Z,9.67
2023-04-28T03:41:56.344Z,11.20
2023-04-28T03:44:59.888Z,10.17
2023-04-28T03:47:32.585Z,10.10
2023-04-28T03:50:07.473Z,10.33
2023-04-28T03:52:47.230Z,11.23
2023-04-28T03:55:20.805Z,10.83
2023-04-28T03:57:51.629Z,10.40
2023-04-28T04:00:24.714Z,9.73
2023-04-28T04:03:03.408Z,9.07
2023-04-28T04:05:40.974Z,9.80
2023-04-28T04:08:12.375Z,10.73
2023-04-28T04:10:49.849Z,10.03
2023-04-28T04:13:25.453Z,10.00
2023-04-28T04:16:05.635Z,10.20
2023-04-28T04:18:40.203Z,10.60
2023-04-28T04:21:28.690Z,12.07
2023-04-28T04:24:05.503Z,12.03
2023-04-28T04:26:40.011Z,11.20
2023-04-28T04:29:35.852Z,11.43
2023-04-28T04:32:18.611Z,11.20
2023-04-28T04:34:50.699Z,10.20
2023-04-28T04:37:26.340Z,11.30
2023-04-28T04:40:07.205Z,11.50
2023-04-28T04:43:06.644Z,10.90
2023-04-28T04:45:48.700Z,11.80
2023-04-28T04:48:22.740Z,11.30
2023-04-28T04:51:06.003Z,11.27
2023-04-28T04:53:36.078Z,11.90
2023-04-28T04:56:10.166Z,12.97
2023-04-28T04:58:44.314Z,12.50
2023-04-28T05:01:42.143Z,12.17
2023-04-28T05:04:16.427Z,13.00
2023-04-28T05:06:50.243Z,12.13
2023-04-28T05:09:32.784Z,11.40
2023-04-28T05:12:17.826Z,12.40
2023-04-28T05:14:52.262Z,12.40
2023-04-28T05:17:34.174Z,13.43
2023-04-28T05:20:12.757Z,12.07
2023-04-28T05:22:45.313Z,13.50
2023-04-28T05:25:21.826Z,13.87
2023-04-28T05:27:55.933Z,13.13
2023-04-28T05:30:31.987Z,13.43
2023-04-28T05:33:04.915Z,13.80
2023-04-28T05:35:34.194Z,13.80
2023-04-28T05:38:07.055Z,14.47
2023-04-28T05:40:39.396Z,17.60
2023-04-28T05:43:18.911Z,14.60
2023-04-28T05:45:53.461Z,14.00
2023-04-28T05:48:24.628Z,15.10
2023-04-28T05:51:04.851Z,13.73
2023-04-28T05:53:36.930Z,14.23
2023-04-28T05:56:12.810Z,13.70
2023-04-28T05:58:53.891Z,13.57
2023-04-28T06:01:32.614Z,13.43
2023-04-28T06:04:07.106Z,14.50
2023-04-28T06:06:41.406Z,14.10
2023-04-28T06:09:18.902Z,15.03
2023-04-28T06:11:56.056Z,15.17
2023-04-28T06:14:28.977Z,16.40
2023-04-28T06:17:02.978Z,15.03
2023-04-28T06:19:36.812Z,15.87
2023-04-28T06:22:17.899Z,14.63
2023-04-28T06:24:56.244Z,16.40
2023-04-28T06:27:38.974Z,14.80
2023-04-28T06:30:21.536Z,15.30
2023-04-28T06:33:03.117Z,15.13
2023-04-28T06:35:39.221Z,15.30
2023-04-28T06:38:14.585Z,16.57
2023-04-28T06:40:49.087Z,14.73
2023-04-28T06:43:20.035Z,16.57
2023-04-28T06:46:08.709Z,16.10
2023-04-28T06:48:45.508Z,17.13
2023-04-28T06:51:20.661Z,18.00
2023-04-28T06:54:00.900Z,17.67
2023-04-28T06:56:39.682Z,17.60
2023-04-28T06:59:11.600Z,15.20
2023-04-28T07:01:42.116Z,17.70
2023-04-28T07:04:19.811Z,17.10
2023-04-28T07:06:50.632Z,16.90
2023-04-28T07:09:26.630Z,17.30
2023-04-28T07:12:02.307Z,17.50
2023-04-28T07:14:36.201Z,17.63
2023-04-28T07:17:19.106Z,16.43
2023-04-28T07:19:55.913Z,17.23
2023-04-28T07:22:28.969Z,16.40
2023-04-28T07:25:00.170Z,16.40
2023-04-28T07:27:39.801Z,17.90
2023-04-28T07:32:59.961Z,17.60
2023-04-28T07:35:31.307Z,18.27
2023-04-28T07:38:01.081Z,20.03
2023-04-28T07:40:37.630Z,19.43
2023-04-28T07:43:09.952Z,24.27
2023-04-28T07:45:48.223Z,21.03
2023-04-28T07:48:21.517Z,21.17
2023-04-28T07:51:00.723Z,27.73
2023-04-28T07:53:36.560Z,26.83
2023-04-28T07:56:16.476Z,27.03
2023-04-28T07:58:53.908Z,23.60
2023-04-28T08:01:35.985Z,24.30
2023-04-28T08:04:15.524Z,24.47
2023-04-28T08:06:55.778Z,29.73
2023-04-28T08:09:31.180Z,30.40
2023-04-28T08:12:01.787Z,25.93
2023-04-28T08:14:38.140Z,27.00
2023-04-28T08:17:15.340Z,27.23
2023-04-28T08:19:49.076Z,25.57
2023-04-28T08:22:23.236Z,24.57
2023-04-28T08:25:03.087Z,23.60
2023-04-28T08:27:40.720Z,22.00
2023-04-28T08:30:17.732Z,22.03
2023-04-28T08:32:51.061Z,22.27
2023-04-28T08:35:28.074Z,24.70
2023-04-28T08:37:58.810Z,23.70
2023-04-28T08:40:35.650Z,24.67
2023-04-28T08:43:09.268Z,33.33
2023-04-28T08:45:48.519Z,27.87
2023-04-28T08:48:26.267Z,28.53
2023-04-28T08:51:01.012Z,32.13
2023-04-28T08:53:52.212Z,31.57
2023-04-28T08:56:41.792Z,30.07
2023-04-28T08:59:16.317Z,32.00
2023-04-28T09:01:56.832Z,30.40
2023-04-28T09:04:38.611Z,34.83
2023-04-28T09:07:19.330Z,33.60
2023-04-28T09:09:57.521Z,34.13
2023-04-28T09:12:44.111Z,28.43
2023-04-28T09:15:30.622Z,24.37
2023-04-28T09:18:21.487Z,23.13
2023-04-28T09:21:01.891Z,21.70
2023-04-28T09:23:34.401Z,20.30
2023-04-28T09:26:11.028Z,19.87
2023-04-28T09:28:45.088Z,19.30
2023-04-28T09:31:38.344Z,18.80
2023-04-28T09:34:16.621Z,22.40
2023-04-28T09:36:52.346Z,23.33
2023-04-28T09:39:36.158Z,20.27
2023-04-28T09:42:13.162Z,22.13
2023-04-28T09:44:53.834Z,21.50
2023-04-28T09:47:35.337Z,22.67
2023-04-28T09:50:17.654Z,21.77
2023-04-28T09:53:03.527Z,22.37
2023-04-28T09:55:38.853Z,23.27
2023-04-28T09:58:16.722Z,22.13
2023-04-28T10:00:51.144Z,21.97
2023-04-28T10:03:34.251Z,23.00
2023-04-28T10:06:13.233Z,22.80
2023-04-28T10:08:44.030Z,20.47
2023-04-28T10:11:18.627Z,21.97
2023-04-28T10:14:03.740Z,21.73
2023-04-28T10:16:44.910Z,21.57
2023-04-28T10:19:25.250Z,23.17
2023-04-28T10:22:35.128Z,26.40
2023-04-28T10:25:31.307Z,24.73
2023-04-28T10:28:07.079Z,22.90
2023-04-28T10:30:39.467Z,24.43
2023-04-28T10:33:30.294Z,24.10
2023-04-28T10:36:10.128Z,23.77
2023-04-28T10:39:32.021Z,26.63
2023-04-28T10:42:06.187Z,23.93
2023-04-28T10:44:46.534Z,22.43
2023-04-28T10:47:26.345Z,24.80
2023-04-28T10:50:13.407Z,22.53
2023-04-28T10:52:56.855Z,21.37
2023-04-28T10:55:47.072Z,20.57
2023-04-28T10:58:48.008Z,24.60
2023-04-28T11:01:33.861Z,24.60
2023-04-28T11:04:16.178Z,22.57
2023-04-28T11:06:52.978Z,26.03
2023-04-28T11:10:01.630Z,22.70
2023-04-28T11:13:36.619Z,21.50
2023-04-28T11:16:25.917Z,21.40
2023-04-28T11:19:05.588Z,21.30
2023-04-28T11:21:38.396Z,22.23
2023-04-28T11:24:17.448Z,21.87
2023-04-28T11:26:57.074Z,21.60
2023-04-28T11:29:39.444Z,23.67
2023-04-28T11:32:15.721Z,24.87
2023-04-28T11:34:54.635Z,24.50
2023-04-28T11:37:30.657Z,24.43
2023-04-28T11:40:03.681Z,24.80
2023-04-28T11:42:44.020Z,23.73
2023-04-28T11:45:25.135Z,23.60
2023-04-28T11:48:06.202Z,20.70
2023-04-28T11:50:43.123Z,23.10
2023-04-28T11:53:13.451Z,24.40
2023-04-28T11:55:43.896Z,28.40
2023-04-28T11:58:29.835Z,25.70
2023-04-28T12:01:12.863Z,25.30
2023-04-28T12:03:49.133Z,25.30
2023-04-28T12:06:23.249Z,26.03
2023-04-28T12:09:07.997Z,26.97
2023-04-28T12:11:41.782Z,23.37
2023-04-28T12:14:20.036Z,23.93
2023-04-28T12:16:51.198Z,23.00
2023-04-28T12:19:51.707Z,22.43
2023-04-28T12:22:26.298Z,25.00
2023-04-28T12:25:11.102Z,22.40
2023-04-28T12:27:42.253Z,23.60
2023-04-28T12:30:37.534Z,23.93
2023-04-28T12:33:26.881Z,22.10
2023-04-28T12:36:08.923Z,21.20
2023-04-28T12:38:39.826Z,21.27
2023-04-28T12:41:21.972Z,21.80
2023-04-28T12:44:02.758Z,22.20
2023-04-28T12:46:35.278Z,22.30
2023-04-28T12:49:11.502Z,22.17
2023-04-28T12:51:43.247Z,20.63
2023-04-28T12:54:20.756Z,20.60
2023-04-28T12:56:57.159Z,22.63
2023-04-28T12:59:31.476Z,22.17
2023-04-28T13:02:05.657Z,20.60
2023-04-28T13:04:36.944Z,18.60
2023-04-28T13:07:17.795Z,16.97
2023-04-28T13:09:47.953Z,16.90
2023-04-28T13:12:16.708Z,16.37
2023-04-28T13:14:48.058Z,15.53
2023-04-28T13:17:36.853Z,15.03
2023-04-28T13:20:16.908Z,13.70
2023-04-28T13:22:49.295Z,13.90
2023-04-28T13:25:20.766Z,14.47
2023-04-28T13:27:59.045Z,13.47
2023-04-28T13:30:42.483Z,40.50
2023-04-28T13:33:14.667Z,20.43
2023-04-28T13:35:46.020Z,16.03
2023-04-28T13:38:32.814Z,23.77
2023-04-28T13:41:13.753Z,16.30
2023-04-28T13:43:49.554Z,11.23
2023-04-28T13:46:25.507Z,8.63
2023-04-28T13:49:01.213Z,9.00
2023-04-28T13:51:35.228Z,8.70
2023-04-28T13:54:13.557Z,9.40
2023-04-28T13:56:48.409Z,9.30
2023-04-28T13:59:30.996Z,9.17
2023-04-28T14:02:08.067Z,9.30
2023-04-28T14:04:38.140Z,9.63
2023-04-28T14:07:13.818Z,8.60
2023-04-28T14:09:59.298Z,7.83
2023-04-28T14:12:35.688Z,7.23
2023-04-28T14:15:13.627Z,7.93
2023-04-28T14:17:45.774Z,7.63
2023-04-28T14:20:20.511Z,8.13
2023-04-28T14:22:53.241Z,6.23
2023-04-28T14:25:28.214Z,6.10
2023-04-28T14:28:01.547Z,6.40
2023-04-28T14:30:41.168Z,6.47
2023-04-28T14:33:14.503Z,5.10
2023-04-28T14:35:47.812Z,5.30
2023-04-28T14:38:21.860Z,4.50
2023-04-28T14:41:04.247Z,5.10
2023-04-28T14:43:40.794Z,3.90
2023-04-28T14:46:12.193Z,3.43
2023-04-28T14:48:42.884Z,4.80
2023-04-28T14:51:12.361Z,4.03
2023-04-28T14:53:44.074Z,4.50
2023-04-28T14:56:29.368Z,3.70
2023-04-28T14:59:08.798Z,3.90
2023-04-28T15:01:42.131Z,4.60
2023-04-28T15:04:20.419Z,3.23
2023-04-28T15:06:59.247Z,3.27
2023-04-28T15:09:37.373Z,3.17
2023-04-28T15:12:08.859Z,3.10
2023-04-28T15:14:41.809Z,3.13
2023-04-28T15:17:17.889Z,2.70
2023-04-28T15:20:02.293Z,3.10
2023-04-28T15:22:35.113Z,2.90
2023-04-28T15:25:06.117Z,2.90
2023-04-28T15:27:53.423Z,2.70
2023-04-28T15:30:29.886Z,2.93
2023-04-28T15:33:15.101Z,2.30
2023-04-28T15:35:54.932Z,2.50
2023-04-28T15:41:11.906Z,2.70
2023-04-28T15:43:51.505Z,2.80
2023-04-28T15:46:31.285Z,2.20
2023-04-28T15:49:08.283Z,2.03
2023-04-28T15:51:41.226Z,2.30
2023-04-28T15:54:20.628Z,2.13
2023-04-28T15:56:55.199Z,1.60
2023-04-28T15:59:31.021Z,1.93
2023-04-28T16:02:03.345Z,2.00
2023-04-28T16:04:33.263Z,2.00
2023-04-28T16:07:06.460Z,1.80
2023-04-28T16:09:39.987Z,1.80
2023-04-28T16:12:10.654Z,2.50
2023-04-28T16:14:58.818Z,2.93
2023-04-28T16:17:29.876Z,2.70
2023-04-28T16:20:03.399Z,3.00
2023-04-28T16:22:44.478Z,2.90
2023-04-28T16:25:21.111Z,2.70
2023-04-28T16:27:53.539Z,2.90
2023-04-28T16:30:28.483Z,2.63
2023-04-28T16:33:03.709Z,4.53
2023-04-28T16:38:17.609Z,11.77
2023-04-28T16:40:49.187Z,6.47
2023-04-28T16:43:21.756Z,2.73
2023-04-28T16:46:11.144Z,3.43
2023-04-28T16:48:48.049Z,3.00
2023-04-28T16:51:24.095Z,2.63
2023-04-28T16:54:04.000Z,2.63
2023-04-28T16:56:44.351Z,2.70
2023-04-28T16:59:15.001Z,1.93
2023-04-28T17:01:57.040Z,1.80
2023-04-28T17:04:40.268Z,1.83
2023-04-28T17:07:11.862Z,1.87
2023-04-28T17:09:49.502Z,1.90
2023-04-28T17:12:23.785Z,2.13
2023-04-28T17:15:00.205Z,1.90
2023-04-28T17:17:50.669Z,3.00
2023-04-28T17:20:22.329Z,1.90
2023-04-28T17:22:58.156Z,2.10
2023-04-28T17:25:29.900Z,3.20
2023-04-28T17:28:04.631Z,2.47
2023-04-28T17:30:38.198Z,2.27
2023-04-28T17:33:35.425Z,2.00
2023-04-28T17:36:14.115Z,2.40
2023-04-28T17:38:48.366Z,1.90
2023-04-28T17:41:17.536Z,2.80
2023-04-28T17:43:49.474Z,2.77
2023-04-28T17:46:20.402Z,2.60
2023-04-28T17:48:59.019Z,6.20
2023-04-28T17:51:36.480Z,6.43
2023-04-28T17:54:15.489Z,4.10
2023-04-28T17:56:51.521Z,2.50
2023-04-28T17:59:30.146Z,2.80
2023-04-28T18:02:04.772Z,1.77
2023-04-28T18:04:41.931Z,2.17
2023-04-28T18:07:14.636Z,2.00
2023-04-28T18:09:44.343Z,2.10
2023-04-28T18:12:15.004Z,1.90
2023-04-28T18:14:57.036Z,2.17
2023-04-28T18:17:38.673Z,2.53
2023-04-28T18:20:19.791Z,2.10
2023-04-28T18:22:50.996Z,1.87
2023-04-28T18:25:25.345Z,1.63
2023-04-28T18:28:12.106Z,2.10
2023-04-28T18:30:40.513Z,1.90
2023-04-28T18:33:11.490Z,1.73
2023-04-28T18:35:47.362Z,2.00
2023-04-28T18:38:18.442Z,2.20
2023-04-28T18:40:54.582Z,2.27
2023-04-28T18:43:35.100Z,2.20
2023-04-28T18:46:09.082Z,1.90
2023-04-28T18:48:44.912Z,2.03
2023-04-28T18:51:19.597Z,2.33
2023-04-28T18:53:59.619Z,2.10
2023-04-28T18:56:38.687Z,2.97
2023-04-28T18:59:09.420Z,2.30
2023-04-28T19:01:45.944Z,2.53
2023-04-28T19:04:16.147Z,2.93
2023-04-28T19:06:53.065Z,2.47
2023-04-28T19:09:37.928Z,2.67
2023-04-28T19:12:11.433Z,2.50
2023-04-28T19:14:44.874Z,2.57
2023-04-28T19:17:16.134Z,1.80
2023-04-28T19:19:58.177Z,2.03
2023-04-28T19:22:50.151Z,2.50
2023-04-28T19:25:29.122Z,2.50
2023-04-28T19:28:06.497Z,2.80
2023-04-28T19:30:41.578Z,2.77
2023-04-28T19:33:15.219Z,3.17
2023-04-28T19:35:51.564Z,3.37
2023-04-28T19:38:30.416Z,3.93
2023-04-28T19:41:08.083Z,7.53
2023-04-28T19:43:40.679Z,4.57
2023-04-28T19:46:16.034Z,3.80
2023-04-28T19:48:52.973Z,3.80
2023-04-28T19:51:30.490Z,3.30
2023-04-28T19:54:05.964Z,3.13
2023-04-28T19:56:37.986Z,3.50
2023-04-28T19:59:11.391Z,3.23
2023-04-28T20:01:50.980Z,3.03
2023-04-28T20:04:20.964Z,3.20
2023-04-28T20:06:51.850Z,3.77
2023-04-28T20:09:28.649Z,3.70
2023-04-28T20:12:02.857Z,3.60
2023-04-28T20:14:33.632Z,3.27
2023-04-28T20:17:14.437Z,3.33
2023-04-28T20:19:48.976Z,3.53
2023-04-28T20:22:29.471Z,3.80
2023-04-28T20:25:09.057Z,3.50
2023-04-28T20:27:38.835Z,3.77
2023-04-28T20:30:14.047Z,4.57
2023-04-28T20:32:48.066Z,9.80
2023-04-28T20:35:23.493Z,5.73
2023-04-28T20:37:56.689Z,7.00
2023-04-28T20:40:48.605Z,6.20
2023-04-28T20:43:21.749Z,5.10
2023-04-28T20:45:55.623Z,4.50
2023-04-28T20:48:42.882Z,4.80
2023-04-28T20:51:22.214Z,5.20
2023-04-28T20:53:56.221Z,5.53
2023-04-28T20:56:40.067Z,5.67
2023-04-28T20:59:17.927Z,6.50
2023-04-28T21:01:47.849Z,5.67
2023-04-28T21:04:20.451Z,5.70
2023-04-28T21:06:54.627Z,6.90
2023-04-28T21:09:29.264Z,5.90
2023-04-28T21:12:12.022Z,4.30
2023-04-28T21:14:58.875Z,4.10
2023-04-28T21:17:34.724Z,4.57
2023-04-28T21:20:05.177Z,5.20
2023-04-28T21:22:37.575Z,5.97
2023-04-28T21:25:11.763Z,5.87
2023-04-28T21:27:50.363Z,6.30
2023-04-28T21:30:29.556Z,6.30
2023-04-28T21:33:06.503Z,7.07
2023-04-28T21:35:43.660Z,6.23
2023-04-28T21:38:19.029Z,5.63
2023-04-28T21:41:03.894Z,4.40
2023-04-28T21:43:48.161Z,4.30
2023-04-28T21:46:21.953Z,4.67
2023-04-28T21:48:54.771Z,3.67
2023-04-28T21:51:26.869Z,3.83
2023-04-28T21:53:56.428Z,4.60
2023-04-28T21:56:30.254Z,4.37
2023-04-28T21:59:08.613Z,4.70
2023-04-28T22:01:38.878Z,4.30
2023-04-28T22:04:12.139Z,3.23
2023-04-28T22:06:47.132Z,5.83
2023-04-28T22:09:32.410Z,13.37
2023-04-28T22:12:17.548Z,9.20
2023-04-28T22:15:03.797Z,25.43
2023-04-28T22:17:41.449Z,16.10
2023-04-28T22:20:16.972Z,10.23
2023-04-28T22:22:47.221Z,10.10
2023-04-28T22:25:19.766Z,8.77
2023-04-28T22:27:52.519Z,6.53
2023-04-28T22:30:27.766Z,9.23
2023-04-28T22:32:59.547Z,6.23
2023-04-28T22:35:32.722Z,6.63
2023-04-28T22:38:06.457Z,6.73
2023-04-28T22:40:39.986Z,7.20
2023-04-28T22:43:17.722Z,5.87
2023-04-28T22:45:55.522Z,5.70
2023-04-28T22:48:28.034Z,5.30
2023-04-28T22:50:59.250Z,6.17
2023-04-28T22:53:29.775Z,5.67
2023-04-28T22:56:03.466Z,5.20
2023-04-28T22:58:37.353Z,4.93
2023-04-28T23:01:23.563Z,5.80
2023-04-28T23:03:57.476Z,5.90
2023-04-28T23:06:37.179Z,6.20
2023-04-28T23:09:08.215Z,7.50
2023-04-28T23:11:49.582Z,6.90
2023-04-28T23:14:29.868Z,6.20
2023-04-28T23:17:03.988Z,7.67
2023-04-28T23:19:43.681Z,6.97
2023-04-28T23:22:23.601Z,6.10
2023-04-28T23:24:55.156Z,5.10
2023-04-28T23:27:25.851Z,5.47
2023-04-28T23:29:59.435Z,5.90
2023-04-28T23:32:51.269Z,5.33
2023-04-28T23:35:28.914Z,5.00
2023-04-28T23:37:59.786Z,5.23
2023-04-28T23:40:30.854Z,5.30
2023-04-28T23:43:09.121Z,5.47
2023-04-28T23:45:40.677Z,4.77
2023-04-28T23:48:21.454Z,4.93
2023-04-28T23:50:52.097Z,4.97
2023-04-28T23:53:31.068Z,4.80
2023-04-28T23:56:09.086Z,5.03
2023-04-28T23:58:44.005Z,4.33
